Time;durP1;ratioP1;P1;durP2;ratioP2;P2;SDS_P1;SDS_P2;PMS_P1;PMS_P2;Temp;Humidity;BMP_temperature;BMP_pressure;BME280_temperature;BME280_humidity;BME280_pressure;Samples;Min_cycle;Max_cycle;Signal;HPM_P1;HPM_P2
2021/05/05 00:01:30;;;;;;;1.25;0.45;;;17.60;61.40;;;;;;10543027;28;20027;-53
2021/05/05 00:06:31;;;;;;;1.40;0.52;;;17.60;61.30;;;;;;10542507;28;20395;-52
2021/05/05 00:11:31;;;;;;;2.92;0.65;;;17.60;61.30;;;;;;10543387;28;20165;-52
2021/05/05 00:16:32;;;;;;;2.08;0.70;;;17.60;61.20;;;;;;10561939;28;20039;-51
2021/05/05 00:21:34;;;;;;;3.20;0.60;;;17.60;61.20;;;;;;10542186;28;20035;-49
2021/05/05 00:26:35;;;;;;;0.82;0.40;;;17.60;61.20;;;;;;10555358;28;20509;-49
2021/05/05 00:31:36;;;;;;;2.05;0.68;;;17.60;61.20;;;;;;10553234;28;20495;-51
2021/05/05 00:36:37;;;;;;;1.55;0.60;;;17.60;61.20;;;;;;10555407;28;20127;-48
2021/05/05 00:41:38;;;;;;;1.40;0.57;;;17.60;61.10;;;;;;10541264;28;20458;-47
2021/05/05 00:46:39;;;;;;;1.15;0.55;;;17.60;61.00;;;;;;10540761;28;20535;-49
2021/05/05 00:51:40;;;;;;;2.63;0.50;;;17.60;61.00;;;;;;10541507;28;20028;-47
2021/05/05 00:56:42;;;;;;;0.63;0.50;;;17.60;60.90;;;;;;10555077;28;20115;-51
2021/05/05 01:01:43;;;;;;;1.67;0.28;;;17.60;60.90;;;;;;10522729;28;20031;-49
2021/05/05 01:06:43;;;;;;;1.75;0.52;;;17.60;60.90;;;;;;10550139;28;20035;-48
2021/05/05 01:11:45;;;;;;;0.93;0.30;;;17.60;60.80;;;;;;10561878;28;20395;-51
2021/05/05 01:16:46;;;;;;;0.50;0.38;;;17.60;60.90;;;;;;10540040;28;20125;-47
2021/05/05 01:21:46;;;;;;;1.98;0.68;;;17.60;60.80;;;;;;10566357;28;20038;-49
2021/05/05 01:26:47;;;;;;;1.90;0.55;;;17.60;60.80;;;;;;10553348;28;20559;-49
2021/05/05 01:31:48;;;;;;;0.80;0.40;;;17.60;60.70;;;;;;10573896;28;20531;-52
2021/05/05 01:36:49;;;;;;;1.35;0.63;;;17.60;60.80;;;;;;10551545;28;20059;-49
2021/05/05 01:41:50;;;;;;;0.68;0.50;;;17.60;60.80;;;;;;10522634;28;20082;-47
2021/05/05 01:46:51;;;;;;;1.27;0.50;;;17.60;60.70;;;;;;10538840;28;20024;-49
2021/05/05 01:51:55;;;;;;;0.82;0.57;;;17.60;60.70;;;;;;10539814;28;20039;-48
2021/05/05 01:57:27;;;;;;;0.77;0.50;;;17.60;60.70;;;;;;10554036;28;20036;-48
2021/05/05 02:02:30;;;;;;;2.08;0.47;;;17.60;60.70;;;;;;10569206;28;20524;-49
2021/05/05 02:07:31;;;;;;;0.65;0.43;;;17.60;60.70;;;;;;10543862;28;20036;-49
2021/05/05 02:12:32;;;;;;;1.08;0.40;;;17.60;60.60;;;;;;10529197;28;20479;-48
2021/05/05 02:17:33;;;;;;;2.45;0.70;;;17.60;60.60;;;;;;10528648;28;20036;-52
2021/05/05 02:22:34;;;;;;;1.50;0.55;;;17.60;60.60;;;;;;10537897;28;20039;-49
2021/05/05 02:27:37;;;;;;;1.90;0.40;;;17.60;60.50;;;;;;10560434;28;20031;-48
2021/05/05 02:32:40;;;;;;;1.83;0.35;;;17.60;60.50;;;;;;10546507;28;20036;-47
2021/05/05 02:37:43;;;;;;;1.13;0.30;;;17.60;60.50;;;;;;10549912;28;20051;-49
2021/05/05 02:42:44;;;;;;;1.15;0.40;;;17.60;60.50;;;;;;10558512;28;20588;-51
2021/05/05 02:47:45;;;;;;;1.90;0.40;;;17.60;60.40;;;;;;10545635;28;20028;-50
2021/05/05 02:52:45;;;;;;;1.65;0.40;;;17.60;60.40;;;;;;10562927;28;20111;-51
2021/05/05 02:57:46;;;;;;;1.20;0.40;;;17.60;60.40;;;;;;10559819;28;20111;-46
2021/05/05 03:02:47;;;;;;;2.10;0.63;;;17.60;60.40;;;;;;10572975;28;20102;-49
2021/05/05 03:07:47;;;;;;;1.13;0.50;;;17.60;60.40;;;;;;10544931;28;20074;-47
2021/05/05 03:12:48;;;;;;;2.70;1.08;;;17.60;60.30;;;;;;10560828;28;20123;-48
2021/05/05 03:17:49;;;;;;;0.52;0.38;;;17.70;60.40;;;;;;10548003;28;20036;-47
2021/05/05 03:22:49;;;;;;;0.77;0.30;;;17.60;60.30;;;;;;10569417;28;20102;-48
2021/05/05 03:27:50;;;;;;;0.73;0.40;;;17.60;60.30;;;;;;10563954;28;20027;-53
2021/05/05 03:32:51;;;;;;;0.77;0.50;;;17.60;60.30;;;;;;10544399;28;20032;-48
2021/05/05 03:37:52;;;;;;;0.88;0.30;;;17.60;60.30;;;;;;10543500;28;20043;-50
2021/05/05 03:42:52;;;;;;;0.95;0.43;;;17.60;60.30;;;;;;10525592;28;20081;-48
2021/05/05 03:47:53;;;;;;;0.55;0.20;;;17.60;60.20;;;;;;10547284;28;20052;-51
2021/05/05 03:52:54;;;;;;;0.98;0.20;;;17.60;60.20;;;;;;10544776;28;20482;-49
2021/05/05 03:57:55;;;;;;;0.75;0.30;;;17.60;60.10;;;;;;10553886;28;20047;-50
2021/05/05 04:02:56;;;;;;;0.98;0.30;;;17.60;60.10;;;;;;10563493;28;20032;-50
2021/05/05 04:07:56;;;;;;;0.43;0.32;;;17.60;60.00;;;;;;10564080;28;20062;-51
2021/05/05 04:12:57;;;;;;;0.50;0.38;;;17.60;60.00;;;;;;10542520;28;20043;-48
2021/05/05 04:17:58;;;;;;;1.45;0.40;;;17.60;60.00;;;;;;10547739;28;20395;-48
2021/05/05 04:22:59;;;;;;;1.13;0.40;;;17.60;60.00;;;;;;10566383;28;20046;-53
2021/05/05 04:28:00;;;;;;;0.40;0.20;;;17.70;60.00;;;;;;10554446;28;20043;-52
2021/05/05 04:33:00;;;;;;;2.05;0.50;;;17.70;59.90;;;;;;10566927;28;20036;-52
2021/05/05 04:38:01;;;;;;;0.93;0.43;;;17.70;59.90;;;;;;10564231;28;20048;-51
2021/05/05 04:43:02;;;;;;;4.95;0.80;;;17.60;59.90;;;;;;10567335;28;20098;-48
2021/05/05 04:48:04;;;;;;;1.98;0.40;;;17.60;60.00;;;;;;10565198;28;20034;-48
2021/05/05 04:53:05;;;;;;;2.45;0.63;;;17.60;60.80;;;;;;10546664;28;20110;-51
2021/05/05 04:58:06;;;;;;;2.00;0.38;;;17.60;61.50;;;;;;10565644;28;20040;-47
2021/05/05 05:03:06;;;;;;;7.30;0.80;;;17.60;61.70;;;;;;10533085;28;20028;-50
2021/05/05 05:08:07;;;;;;;5.88;0.70;;;17.60;62.20;;;;;;10564397;28;20065;-49
2021/05/05 05:13:08;;;;;;;7.50;0.95;;;17.60;62.50;;;;;;10571095;28;20217;-51
2021/05/05 05:18:08;;;;;;;7.32;0.85;;;17.60;62.70;;;;;;10553398;28;20036;-46
2021/05/05 05:23:09;;;;;;;6.55;0.93;;;17.60;62.90;;;;;;10555377;28;20395;-48
2021/05/05 05:28:10;;;;;;;2.85;0.65;;;17.60;63.10;;;;;;10574071;28;20041;-51
2021/05/05 05:33:11;;;;;;;8.32;0.63;;;17.60;62.20;;;;;;10566507;28;20130;-52
2021/05/05 05:38:12;;;;;;;6.72;1.27;;;17.60;61.90;;;;;;10580478;28;20096;-50
2021/05/05 05:43:13;;;;;;;6.82;0.90;;;17.50;61.80;;;;;;10570572;28;20067;-48
2021/05/05 05:48:14;;;;;;;4.05;0.80;;;17.50;61.80;;;;;;10563646;28;20107;-50
2021/05/05 05:53:15;;;;;;;2.47;0.57;;;17.50;61.70;;;;;;10564300;28;20055;-48
2021/05/05 05:58:16;;;;;;;0.65;0.35;;;17.50;61.50;;;;;;10551008;28;20126;-49
2021/05/05 06:03:17;;;;;;;1.55;0.57;;;17.50;61.50;;;;;;10569467;28;20028;-46
2021/05/05 06:08:20;;;;;;;3.28;0.47;;;17.50;61.40;;;;;;10526555;28;20036;-45
2021/05/05 06:13:20;;;;;;;7.38;0.90;;;17.50;61.20;;;;;;10543171;28;20074;-49
2021/05/05 06:18:22;;;;;;;2.45;0.50;;;17.50;61.10;;;;;;10568468;28;20170;-49
2021/05/05 06:23:23;;;;;;;2.78;0.40;;;17.50;61.10;;;;;;10575047;28;20016;-50
2021/05/05 06:28:24;;;;;;;4.35;0.68;;;17.50;61.00;;;;;;10561173;28;20028;-46
2021/05/05 06:33:25;;;;;;;9.20;1.60;;;17.50;61.00;;;;;;10551927;28;20036;-47
2021/05/05 06:38:26;;;;;;;12.55;1.33;;;17.50;61.10;;;;;;10549178;28;20101;-46
2021/05/05 06:43:27;;;;;;;16.25;1.90;;;17.60;61.00;;;;;;10562389;28;20563;-46
2021/05/05 06:48:28;;;;;;;20.02;1.65;;;17.60;61.40;;;;;;10527329;28;20023;-45
2021/05/05 06:53:29;;;;;;;10.27;1.83;;;17.60;61.30;;;;;;10563494;28;20024;-45
2021/05/05 06:58:30;;;;;;;19.48;2.22;;;17.60;60.50;;;;;;10570957;28;20028;-46
2021/05/05 07:03:31;;;;;;;11.77;2.58;;;17.60;60.50;;;;;;10562599;28;20107;-48
2021/05/05 07:08:32;;;;;;;14.90;2.95;;;17.60;60.30;;;;;;10550833;28;20028;-47
2021/05/05 07:13:33;;;;;;;25.67;2.85;;;17.60;60.50;;;;;;10548199;28;20115;-43
2021/05/05 07:18:34;;;;;;;14.57;3.08;;;17.70;61.60;;;;;;10565230;28;20022;-51
2021/05/05 07:23:35;;;;;;;17.02;2.47;;;17.60;60.80;;;;;;10538405;28;20028;-46
2021/05/05 07:28:36;;;;;;;13.23;2.65;;;17.60;61.50;;;;;;10569145;28;20110;-49
2021/05/05 07:33:37;;;;;;;10.73;2.55;;;17.60;61.70;;;;;;10572566;28;20036;-46
2021/05/05 07:48:52;;;;;;;16.02;2.42;;;17.50;62.50;;;;;;10531491;28;20096;-46
2021/05/05 07:53:53;;;;;;;14.80;3.13;;;17.50;62.90;;;;;;10541845;28;20038;-45
2021/05/05 07:58:54;;;;;;;22.42;3.05;;;17.50;63.00;;;;;;10568829;28;20028;-49
2021/05/05 08:03:55;;;;;;;19.95;2.83;;;17.50;62.90;;;;;;10557599;28;20452;-47
2021/05/05 08:08:56;;;;;;;28.05;4.05;;;17.50;62.40;;;;;;10559130;28;20097;-55
2021/05/05 08:13:57;;;;;;;30.23;3.83;;;17.50;62.70;;;;;;10565933;28;20498;-55
2021/05/05 08:18:58;;;;;;;20.20;3.10;;;17.40;63.20;;;;;;10555708;28;20269;-56
2021/05/05 08:23:59;;;;;;;22.90;3.33;;;17.40;62.80;;;;;;10544795;28;20429;-54
2021/05/05 08:29:00;;;;;;;16.50;3.28;;;17.40;62.70;;;;;;10563568;28;20466;-52
2021/05/05 08:34:01;;;;;;;31.50;4.43;;;17.40;62.60;;;;;;10544424;28;20100;-56
2021/05/05 08:39:03;;;;;;;24.08;3.38;;;17.40;62.50;;;;;;10561560;28;20104;-56
2021/05/05 08:44:08;;;;;;;13.00;2.72;;;17.40;62.30;;;;;;10568168;28;20434;-57
2021/05/05 08:49:10;;;;;;;18.33;2.75;;;17.30;62.50;;;;;;10550181;28;20040;-55
2021/05/05 08:54:12;;;;;;;14.77;3.95;;;17.30;62.70;;;;;;10552167;28;20047;-56
2021/05/05 08:59:15;;;;;;;18.20;3.13;;;17.20;62.70;;;;;;10540485;28;20358;-55
2021/05/05 09:04:16;;;;;;;15.55;3.10;;;17.20;62.40;;;;;;10521806;28;20032;-55
2021/05/05 09:09:36;;;;;;;11.13;2.53;;;17.30;62.20;;;;;;10544399;28;20055;-55
2021/05/05 09:15:05;;;;;;;10.70;2.35;;;17.20;62.10;;;;;;10538663;28;20081;-53
2021/05/05 09:20:05;;;;;;;13.23;2.38;;;17.20;62.50;;;;;;10566077;28;20040;-54
2021/05/05 09:25:13;;;;;;;8.43;2.65;;;17.20;62.50;;;;;;10559501;28;20065;-55
2021/05/05 09:30:23;;;;;;;13.70;2.08;;;17.20;62.30;;;;;;10560740;28;20054;-54
2021/05/05 09:35:36;;;;;;;7.72;2.45;;;17.20;62.10;;;;;;10575287;28;20047;-55
2021/05/05 09:41:07;;;;;;;12.52;1.85;;;17.30;62.10;;;;;;10539460;28;20393;-55
2021/05/05 09:46:50;;;;;;;5.97;1.88;;;17.20;62.20;;;;;;10533324;28;20047;-54
2021/05/05 09:52:04;;;;;;;8.50;1.65;;;17.20;62.30;;;;;;10550037;28;20032;-54
2021/05/05 09:57:27;;;;;;;6.20;1.85;;;17.20;62.20;;;;;;10564890;28;20036;-53
2021/05/05 10:02:40;;;;;;;5.03;1.60;;;17.20;62.20;;;;;;10568097;28;20028;-53
2021/05/05 10:08:04;;;;;;;7.80;1.50;;;17.20;62.20;;;;;;10564693;28;20519;-53
2021/05/05 10:13:08;;;;;;;5.70;1.40;;;17.20;62.40;;;;;;10552534;28;20088;-53
2021/05/05 10:18:15;;;;;;;6.72;1.20;;;17.20;62.40;;;;;;10556517;28;20028;-53
2021/05/05 10:23:17;;;;;;;10.60;1.92;;;17.10;62.20;;;;;;10547796;28;20024;-55
2021/05/05 10:28:18;;;;;;;10.52;2.67;;;17.10;62.40;;;;;;10531513;28;20031;-55
2021/05/05 10:33:24;;;;;;;9.50;1.98;;;17.10;62.50;;;;;;10572033;28;20035;-52
2021/05/05 10:38:36;;;;;;;11.63;2.03;;;17.10;62.70;;;;;;10526312;28;20040;-52
2021/05/05 10:43:58;;;;;;;19.52;2.47;;;17.20;62.70;;;;;;10518235;28;20024;-50
2021/05/05 10:49:15;;;;;;;22.08;13.00;;;17.20;63.80;;;;;;10527882;28;20036;-50
2021/05/05 10:54:22;;;;;;;35.25;27.75;;;17.30;62.60;;;;;;10526380;28;20367;-50
2021/05/05 10:59:26;;;;;;;16.50;10.82;;;17.30;62.30;;;;;;10527519;28;20471;-46
2021/05/05 11:05:07;;;;;;;16.23;11.48;;;17.30;60.90;;;;;;10525476;28;20024;-55
2021/05/05 11:10:07;;;;;;;;;;;17.30;61.10;;;;;;10503242;28;20045;-56
2021/05/05 11:15:10;;;;;;;16.27;9.40;;;17.30;60.20;;;;;;10520287;28;19938;-54
2021/05/05 11:20:39;;;;;;;16.95;8.40;;;17.20;60.20;;;;;;10525528;28;20124;-54
2021/05/05 11:25:40;;;;;;;13.68;3.80;;;17.20;60.60;;;;;;10516427;28;20036;-57
2021/05/05 11:30:49;;;;;;;11.77;3.90;;;17.30;58.70;;;;;;10502041;28;20023;-54
2021/05/05 11:35:49;;;;;;;11.60;2.88;;;17.20;58.20;;;;;;10516081;28;20070;-52
2021/05/05 11:41:02;;;;;;;17.42;3.25;;;17.20;58.30;;;;;;10574297;28;20024;-53
2021/05/05 11:46:04;;;;;;;8.70;2.83;;;17.30;58.30;;;;;;10568598;28;20023;-54
2021/05/05 11:51:26;;;;;;;8.95;2.72;;;17.30;59.10;;;;;;10555035;28;20055;-53
2021/05/05 11:56:27;;;;;;;9.05;2.85;;;17.40;59.10;;;;;;10549179;28;20031;-53
2021/05/05 12:01:37;;;;;;;12.55;3.40;;;17.40;59.00;;;;;;10545594;28;20119;-53
2021/05/05 12:06:55;;;;;;;;;;;17.40;59.50;;;;;;10550720;28;20050;-50
2021/05/05 12:12:15;;;;;;;7.50;2.60;;;17.40;59.60;;;;;;10560686;28;20431;-48
2021/05/05 12:17:27;;;;;;;6.57;3.03;;;17.40;59.80;;;;;;10543015;28;20019;-48
2021/05/05 12:22:30;;;;;;;11.18;2.55;;;17.40;60.00;;;;;;10557995;28;20100;-52
2021/05/05 12:27:31;;;;;;;8.48;2.72;;;17.40;59.70;;;;;;10564934;28;20074;-49
2021/05/05 12:32:50;;;;;;;9.88;2.38;;;17.50;60.00;;;;;;10558861;28;20036;-51
2021/05/05 12:37:52;;;;;;;11.43;2.50;;;17.40;60.10;;;;;;10549627;28;20035;-52
2021/05/05 12:42:53;;;;;;;6.45;2.10;;;17.40;60.00;;;;;;10556786;28;20117;-47
2021/05/05 12:48:00;;;;;;;6.32;2.20;;;17.40;60.20;;;;;;10549852;28;20058;-48
2021/05/05 12:53:03;;;;;;;4.80;1.98;;;17.30;60.20;;;;;;10557241;28;20024;-51
2021/05/05 12:58:16;;;;;;;10.40;2.10;;;17.30;60.40;;;;;;10554394;28;20040;-55
2021/05/05 13:03:20;;;;;;;17.80;4.15;;;17.30;60.30;;;;;;10525172;28;20383;-55
2021/05/05 13:09:04;;;;;;;11.52;3.08;;;17.30;60.80;;;;;;10550408;28;20122;-49
2021/05/05 13:14:24;;;;;;;18.90;4.32;;;17.40;61.20;;;;;;10549463;28;20140;-54
2021/05/05 13:30:51;;;;;;;12.45;3.85;;;17.60;61.60;;;;;;10564288;28;20060;-53
2021/05/05 13:35:55;;;;;;;12.65;2.78;;;17.50;61.80;;;;;;10537593;28;20060;-54
2021/05/05 13:41:06;;;;;;;12.95;3.75;;;17.50;62.20;;;;;;10549550;28;20036;-48
2021/05/05 13:46:21;;;;;;;13.18;3.22;;;17.60;62.50;;;;;;10552206;28;20059;-54
2021/05/05 13:51:22;;;;;;;12.80;2.47;;;17.60;62.40;;;;;;10514900;28;20065;-55
2021/05/05 13:56:29;;;;;;;11.90;2.78;;;17.50;62.10;;;;;;10553179;28;20035;-53
2021/05/05 14:01:29;;;;;;;10.10;2.22;;;17.50;61.70;;;;;;10541909;28;20032;-56
2021/05/05 14:06:30;;;;;;;8.77;2.33;;;17.50;61.90;;;;;;10557450;28;20490;-56
2021/05/05 14:11:31;;;;;;;17.17;2.15;;;17.50;61.70;;;;;;10546753;28;20038;-56
2021/05/05 14:16:32;;;;;;;11.98;3.92;;;17.50;61.60;;;;;;10560819;28;20024;-56
2021/05/05 14:21:33;;;;;;;11.18;2.22;;;17.50;61.50;;;;;;10546279;28;20036;-56
2021/05/05 14:26:37;;;;;;;6.78;2.13;;;17.60;61.50;;;;;;10569186;28;20036;-56
2021/05/05 14:31:38;;;;;;;10.07;2.83;;;17.60;61.30;;;;;;10550229;28;20046;-57
2021/05/05 14:36:38;;;;;;;6.45;1.80;;;17.60;61.20;;;;;;10562736;28;20054;-56
2021/05/05 14:41:41;;;;;;;8.60;2.88;;;17.60;61.20;;;;;;10571142;28;20044;-55
2021/05/05 14:51:43;;;;;;;4.90;1.52;;;17.50;61.10;;;;;;10547809;28;20043;-56
2021/05/05 14:56:43;;;;;;;7.45;1.77;;;17.60;61.10;;;;;;10559023;28;20399;-56
2021/05/05 15:01:44;;;;;;;5.38;1.45;;;17.60;61.10;;;;;;10544843;28;20036;-56
2021/05/05 15:06:47;;;;;;;4.57;1.50;;;17.50;61.10;;;;;;10544408;28;20077;-55
2021/05/05 15:17:06;;;;;;;9.35;1.65;;;17.50;61.10;;;;;;10561875;28;20051;-54
2021/05/05 15:28:19;;;;;;;10.07;1.92;;;17.40;61.60;;;;;;10539626;28;20043;-56
2021/05/05 15:38:23;;;;;;;11.37;2.13;;;17.50;61.10;;;;;;10550017;28;20047;-57
2021/05/05 15:48:27;;;;;;;13.15;3.72;;;17.40;60.70;;;;;;10552355;28;20127;-56
2021/05/05 15:53:31;;;;;;;26.08;4.93;;;17.40;61.10;;;;;;10550524;28;20039;-56
2021/05/05 15:58:36;;;;;;;10.82;1.88;;;17.40;61.10;;;;;;10547446;28;20027;-53
2021/05/05 16:14:28;;;;;;;23.53;8.87;;;17.40;61.70;;;;;;10532666;28;20156;-51
2021/05/05 16:19:33;;;;;;;21.27;5.78;;;17.40;60.80;;;;;;10550120;28;20395;-48
2021/05/05 16:30:09;;;;;;;24.73;4.93;;;17.50;64.40;;;;;;10556424;28;20039;-50
2021/05/05 16:56:45;;;;;;;10.95;3.45;;;17.50;62.90;;;;;;10565812;28;20036;-54
2021/05/05 17:07:22;;;;;;;11.77;3.88;;;17.50;62.40;;;;;;10563340;28;20499;-54
2021/05/05 17:12:23;;;;;;;16.20;4.72;;;17.50;62.40;;;;;;10532824;28;20069;-56
2021/05/05 17:17:29;;;;;;;11.55;3.10;;;17.50;62.40;;;;;;10562181;28;20387;-56
2021/05/05 17:22:37;;;;;;;6.72;3.25;;;17.50;62.50;;;;;;10543523;28;20047;-54
2021/05/05 17:27:50;;;;;;;11.98;3.50;;;17.50;62.50;;;;;;10558736;28;20032;-55
2021/05/05 18:20:17;;;;;;;9.50;2.30;;;17.30;62.30;;;;;;10558074;28;20043;-56
2021/05/05 18:25:44;;;;;;;7.55;2.47;;;17.30;62.50;;;;;;10561022;28;20395;-55
2021/05/05 18:30:45;;;;;;;8.02;3.63;;;17.30;62.60;;;;;;10557141;28;20367;-55
2021/05/05 18:35:48;;;;;;;5.82;2.50;;;17.30;63.10;;;;;;10550896;28;20048;-56
2021/05/05 19:34:21;;;;;;;6.40;2.17;;;17.40;62.80;;;;;;10558825;28;20040;-52
2021/05/05 20:26:24;;;;;;;6.00;1.80;;;17.40;61.90;;;;;;10552609;28;20043;-53
2021/05/05 21:19:50;;;;;;;3.53;1.50;;;17.50;61.10;;;;;;10560856;28;20399;-52
2021/05/05 23:57:30;;;;;;;1.77;0.88;;;17.60;59.80;;;;;;10559275;28;20036;-59
